Time;durP1;ratioP1;P1;durP2;ratioP2;P2;SDS_P1;SDS_P2;PMS_P1;PMS_P2;Temp;Humidity;BMP_temperature;BMP_pressure;BME280_temperature;BME280_humidity;BME280_pressure;Samples;Min_cycle;Max_cycle;Signal;HPM_P1;HPM_P2
2023/07/28 00:02:11;;;;;;;7.82;2.22;;;;;;;;;;5034274;28;20028;-64
2023/07/28 00:04:37;;;;;;;6.07;1.70;;;;;;;;;;5035474;28;20486;-64
2023/07/28 00:07:04;;;;;;;1.75;1.45;;;;;;;;;;5035139;28;20022;-64
2023/07/28 00:09:31;;;;;;;2.33;1.52;;;;;;;;;;5035694;28;20026;-64
2023/07/28 00:11:58;;;;;;;4.60;2.15;;;;;;;;;;5035182;28;20021;-64
2023/07/28 00:14:25;;;;;;;3.17;1.80;;;;;;;;;;5035421;28;20036;-63
2023/07/28 00:16:54;;;;;;;2.25;1.60;;;;;;;;;;5035148;28;20033;-63
2023/07/28 00:19:21;;;;;;;2.80;1.73;;;;;;;;;;5033946;28;20386;-63
2023/07/28 00:21:50;;;;;;;3.67;2.00;;;;;;;;;;5034915;28;20035;-64
2023/07/28 00:24:17;;;;;;;2.30;1.75;;;;;;;;;;5035019;28;20028;-64
2023/07/28 00:26:43;;;;;;;6.35;1.88;;;;;;;;;;5035151;28;20037;-63
2023/07/28 00:29:10;;;;;;;2.85;1.90;;;;;;;;;;5035016;28;20025;-64
2023/07/28 00:31:37;;;;;;;9.15;2.03;;;;;;;;;;5034863;28;20452;-63
2023/07/28 00:34:03;;;;;;;4.22;1.83;;;;;;;;;;5034440;28;20021;-62
2023/07/28 00:36:30;;;;;;;2.55;1.73;;;;;;;;;;5034801;28;20050;-63
2023/07/28 00:38:57;;;;;;;2.10;1.80;;;;;;;;;;5034543;28;20021;-64
2023/07/28 00:41:23;;;;;;;3.65;1.85;;;;;;;;;;5034969;28;20029;-64
2023/07/28 00:43:49;;;;;;;1.77;1.52;;;;;;;;;;5034774;28;20067;-64
2023/07/28 00:46:16;;;;;;;3.30;2.00;;;;;;;;;;5034945;28;20337;-64
2023/07/28 00:48:43;;;;;;;2.92;1.70;;;;;;;;;;5034353;28;20037;-64
2023/07/28 00:51:10;;;;;;;3.30;1.90;;;;;;;;;;5034877;28;20025;-64
2023/07/28 00:53:36;;;;;;;2.72;2.05;;;;;;;;;;5034425;28;20021;-64
2023/07/28 00:56:03;;;;;;;3.08;2.25;;;;;;;;;;5034824;28;20032;-64
2023/07/28 00:58:30;;;;;;;3.03;1.85;;;;;;;;;;5033951;28;20024;-64
2023/07/28 01:00:56;;;;;;;3.35;1.90;;;;;;;;;;5034603;28;20035;-64
2023/07/28 01:03:22;;;;;;;4.25;1.83;;;;;;;;;;5034432;28;20037;-63
2023/07/28 01:06:05;;;;;;;2.83;1.65;;;;;;;;;;5033144;28;20032;-64
2023/07/28 01:08:32;;;;;;;5.55;1.75;;;;;;;;;;5034066;28;20079;-63
2023/07/28 01:10:58;;;;;;;3.10;2.00;;;;;;;;;;5034212;28;20392;-63
2023/07/28 01:13:24;;;;;;;3.58;1.90;;;;;;;;;;5033993;28;20021;-63
2023/07/28 01:15:51;;;;;;;3.72;2.10;;;;;;;;;;5034288;28;20043;-64
2023/07/28 01:18:17;;;;;;;4.22;2.03;;;;;;;;;;5033652;28;20026;-64
2023/07/28 01:20:47;;;;;;;3.28;1.70;;;;;;;;;;5034189;28;20475;-64
2023/07/28 01:23:38;;;;;;;3.42;2.15;;;;;;;;;;5034015;28;20425;-64
2023/07/28 01:26:06;;;;;;;2.45;1.70;;;;;;;;;;5034167;28;20039;-64
2023/07/28 01:28:34;;;;;;;2.97;1.60;;;;;;;;;;5032705;28;20394;-63
2023/07/28 01:31:02;;;;;;;3.28;1.88;;;;;;;;;;5065775;28;20044;-64
2023/07/28 01:33:29;;;;;;;5.22;1.80;;;;;;;;;;5048842;28;20029;-64
2023/07/28 01:35:55;;;;;;;3.40;1.80;;;;;;;;;;5033707;28;20037;-63
2023/07/28 01:38:22;;;;;;;3.03;1.88;;;;;;;;;;5033574;28;20470;-62
2023/07/28 01:40:48;;;;;;;2.80;2.08;;;;;;;;;;5033720;28;20037;-63
2023/07/28 01:43:14;;;;;;;2.30;1.98;;;;;;;;;;5033513;28;20025;-63
2023/07/28 01:45:41;;;;;;;3.05;2.10;;;;;;;;;;5033512;28;20033;-63
2023/07/28 01:48:09;;;;;;;4.70;1.92;;;;;;;;;;5033119;28;20018;-63
2023/07/28 01:50:35;;;;;;;3.70;1.75;;;;;;;;;;5033617;28;20478;-63
2023/07/28 01:53:02;;;;;;;3.60;2.15;;;;;;;;;;5033738;28;20027;-63
2023/07/28 01:55:28;;;;;;;2.28;1.90;;;;;;;;;;5033303;28;20478;-63
2023/07/28 01:57:56;;;;;;;3.50;1.92;;;;;;;;;;5033367;28;20383;-63
2023/07/28 02:00:22;;;;;;;3.05;2.20;;;;;;;;;;5033224;28;20024;-64
2023/07/28 02:02:49;;;;;;;2.50;1.55;;;;;;;;;;5032908;28;20034;-64
2023/07/28 02:05:15;;;;;;;2.38;1.75;;;;;;;;;;5033300;28;20501;-63
2023/07/28 02:07:42;;;;;;;3.83;1.80;;;;;;;;;;5033215;28;20051;-64
2023/07/28 02:10:09;;;;;;;5.85;2.03;;;;;;;;;;5033014;28;20094;-63
2023/07/28 02:12:35;;;;;;;6.47;2.13;;;;;;;;;;5040695;28;20033;-63
2023/07/28 02:15:02;;;;;;;5.03;1.90;;;;;;;;;;5052887;28;20021;-64
2023/07/28 02:17:28;;;;;;;1.70;1.50;;;;;;;;;;5052704;28;20017;-63
2023/07/28 02:19:54;;;;;;;3.40;1.80;;;;;;;;;;5052697;28;20028;-64
2023/07/28 02:22:21;;;;;;;4.70;2.03;;;;;;;;;;5052856;28;20508;-63
2023/07/28 02:24:47;;;;;;;2.78;1.73;;;;;;;;;;5053404;28;20025;-64
2023/07/28 02:27:13;;;;;;;2.35;1.80;;;;;;;;;;5052845;28;20020;-64
2023/07/28 02:29:39;;;;;;;3.25;1.90;;;;;;;;;;5052726;28;20396;-63
2023/07/28 02:32:06;;;;;;;4.13;1.85;;;;;;;;;;5052273;28;20056;-63
2023/07/28 02:34:32;;;;;;;3.83;1.98;;;;;;;;;;5051354;28;20029;-64
2023/07/28 02:36:59;;;;;;;3.28;1.80;;;;;;;;;;5051169;28;20047;-64
2023/07/28 02:39:25;;;;;;;3.45;2.20;;;;;;;;;;5052567;28;20393;-64
2023/07/28 02:41:51;;;;;;;4.68;2.20;;;;;;;;;;5052729;28;20039;-64
2023/07/28 02:44:18;;;;;;;3.58;2.17;;;;;;;;;;5052546;28;20406;-64
2023/07/28 02:46:44;;;;;;;3.13;1.83;;;;;;;;;;5084486;28;20033;-63
2023/07/28 02:49:10;;;;;;;2.20;2.00;;;;;;;;;;5052401;28;20477;-64
2023/07/28 02:51:37;;;;;;;3.00;2.00;;;;;;;;;;5050992;28;20033;-65
2023/07/28 02:54:03;;;;;;;2.70;1.77;;;;;;;;;;5052470;28;20478;-64
2023/07/28 02:56:34;;;;;;;2.28;1.90;;;;;;;;;;5052299;28;20037;-64
2023/07/28 02:59:01;;;;;;;2.60;2.20;;;;;;;;;;5052409;28;20014;-63
2023/07/28 03:01:28;;;;;;;4.20;2.00;;;;;;;;;;5052368;28;20029;-64
2023/07/28 03:03:54;;;;;;;4.50;2.00;;;;;;;;;;5052363;28;20022;-64
2023/07/28 03:06:20;;;;;;;2.85;1.80;;;;;;;;;;5051124;28;20030;-64
2023/07/28 03:08:47;;;;;;;3.00;2.13;;;;;;;;;;5052348;28;20029;-64
2023/07/28 03:11:13;;;;;;;4.47;2.08;;;;;;;;;;5051350;28;20026;-64
2023/07/28 03:13:39;;;;;;;3.03;1.70;;;;;;;;;;5034582;28;20021;-64
2023/07/28 03:16:06;;;;;;;4.07;1.98;;;;;;;;;;5032285;28;20409;-63
2023/07/28 03:18:32;;;;;;;2.85;1.92;;;;;;;;;;5032382;28;20092;-63
2023/07/28 03:20:58;;;;;;;3.13;1.95;;;;;;;;;;5032212;28;20026;-64
2023/07/28 03:23:25;;;;;;;3.42;2.22;;;;;;;;;;5035162;28;20396;-63
2023/07/28 03:25:51;;;;;;;3.72;1.90;;;;;;;;;;5036230;28;20029;-63
2023/07/28 03:28:17;;;;;;;2.35;1.80;;;;;;;;;;5036047;28;20428;-63
2023/07/28 03:30:44;;;;;;;3.28;1.90;;;;;;;;;;5036048;28;20033;-64
2023/07/28 03:33:10;;;;;;;2.35;2.05;;;;;;;;;;5016233;28;20112;-64
2023/07/28 03:35:36;;;;;;;2.75;1.83;;;;;;;;;;5015938;28;20440;-63
2023/07/28 03:38:03;;;;;;;4.50;1.98;;;;;;;;;;5016224;28;20028;-63
2023/07/28 03:40:29;;;;;;;3.13;1.80;;;;;;;;;;5016150;28;20022;-63
2023/07/28 03:42:55;;;;;;;4.93;2.55;;;;;;;;;;5016010;28;20020;-63
2023/07/28 03:45:22;;;;;;;4.32;2.03;;;;;;;;;;5016219;28;20026;-64
2023/07/28 03:47:48;;;;;;;5.38;2.28;;;;;;;;;;5015844;28;20471;-63
2023/07/28 03:50:14;;;;;;;2.67;1.88;;;;;;;;;;5016033;28;20026;-64
2023/07/28 03:52:41;;;;;;;5.35;2.08;;;;;;;;;;5015963;28;20487;-63
2023/07/28 03:55:07;;;;;;;2.22;1.77;;;;;;;;;;5015868;28;20025;-64
2023/07/28 03:57:33;;;;;;;3.15;1.63;;;;;;;;;;5015397;28;20021;-63
2023/07/28 04:00:00;;;;;;;4.68;2.17;;;;;;;;;;5014433;28;20071;-64
2023/07/28 04:02:26;;;;;;;2.50;1.90;;;;;;;;;;5015855;28;20022;-63
2023/07/28 04:04:57;;;;;;;2.83;1.80;;;;;;;;;;5015555;28;20040;-63
2023/07/28 04:07:23;;;;;;;4.22;1.98;;;;;;;;;;5015772;28;20368;-64
2023/07/28 04:09:49;;;;;;;2.50;1.90;;;;;;;;;;5015877;28;20022;-64
2023/07/28 04:12:16;;;;;;;2.90;1.73;;;;;;;;;;5020489;28;20490;-64
2023/07/28 04:14:42;;;;;;;2.80;1.95;;;;;;;;;;5035439;28;20044;-64
2023/07/28 04:17:08;;;;;;;3.70;2.05;;;;;;;;;;5035334;28;20509;-63
2023/07/28 04:19:35;;;;;;;2.45;1.75;;;;;;;;;;5035160;28;20021;-64
2023/07/28 04:22:01;;;;;;;2.75;1.88;;;;;;;;;;5035590;28;20025;-63
2023/07/28 04:24:27;;;;;;;2.72;1.75;;;;;;;;;;5035058;28;20028;-64
2023/07/28 04:26:54;;;;;;;3.95;1.92;;;;;;;;;;5034734;28;20368;-64
2023/07/28 04:29:20;;;;;;;2.95;1.70;;;;;;;;;;5035135;28;20382;-64
2023/07/28 04:31:46;;;;;;;2.72;2.10;;;;;;;;;;5043517;28;20045;-63
2023/07/28 04:34:13;;;;;;;2.90;1.90;;;;;;;;;;5054244;28;20033;-64
2023/07/28 04:36:39;;;;;;;3.80;1.98;;;;;;;;;;5054811;28;20497;-64
2023/07/28 04:39:05;;;;;;;2.50;1.73;;;;;;;;;;5055169;28;20017;-64
2023/07/28 04:41:32;;;;;;;3.15;2.33;;;;;;;;;;5054360;28;20029;-64
2023/07/28 04:43:58;;;;;;;6.15;2.40;;;;;;;;;;5054795;28;20486;-64
2023/07/28 04:46:24;;;;;;;2.58;2.08;;;;;;;;;;5054681;28;20039;-64
2023/07/28 04:48:50;;;;;;;13.55;3.70;;;;;;;;;;5054524;28;20023;-63
2023/07/28 04:51:17;;;;;;;5.82;2.10;;;;;;;;;;5054812;28;20037;-64
2023/07/28 04:53:43;;;;;;;3.75;2.17;;;;;;;;;;5054478;28;20013;-63
2023/07/28 04:56:09;;;;;;;6.20;3.17;;;;;;;;;;5054028;28;20389;-63
2023/07/28 04:58:36;;;;;;;3.72;1.88;;;;;;;;;;5054212;28;20469;-64
2023/07/28 05:01:02;;;;;;;6.10;2.28;;;;;;;;;;5054675;28;20037;-63
2023/07/28 05:03:28;;;;;;;3.28;1.95;;;;;;;;;;5054454;28;20496;-63
2023/07/28 05:05:55;;;;;;;4.93;1.70;;;;;;;;;;5054411;28;20029;-64
2023/07/28 05:08:21;;;;;;;2.85;1.83;;;;;;;;;;5053982;28;20023;-64
2023/07/28 05:10:47;;;;;;;3.00;1.98;;;;;;;;;;5053895;28;20029;-64
2023/07/28 05:13:13;;;;;;;3.88;1.92;;;;;;;;;;5040381;28;20021;-63
2023/07/28 05:15:40;;;;;;;2.58;1.90;;;;;;;;;;5034183;28;20500;-64
2023/07/28 05:18:06;;;;;;;3.03;2.20;;;;;;;;;;5034294;28;20079;-63
2023/07/28 05:20:32;;;;;;;5.32;2.25;;;;;;;;;;5034025;28;20100;-63
2023/07/28 05:22:59;;;;;;;4.72;2.10;;;;;;;;;;5033856;28;20025;-63
2023/07/28 05:25:25;;;;;;;3.85;1.75;;;;;;;;;;5033539;28;20028;-64
2023/07/28 05:27:51;;;;;;;5.40;2.03;;;;;;;;;;5034002;28;20397;-63
2023/07/28 05:30:18;;;;;;;2.35;2.05;;;;;;;;;;5033794;28;20035;-64
2023/07/28 05:32:46;;;;;;;3.10;2.05;;;;;;;;;;5033797;28;20053;-63
2023/07/28 05:35:12;;;;;;;2.00;1.75;;;;;;;;;;5033657;28;20030;-64
2023/07/28 05:37:38;;;;;;;4.47;1.85;;;;;;;;;;5033635;28;20426;-64
2023/07/28 05:40:05;;;;;;;2.45;1.90;;;;;;;;;;5033360;28;20448;-63
2023/07/28 05:42:31;;;;;;;3.13;2.15;;;;;;;;;;5065872;28;20021;-63
2023/07/28 05:44:58;;;;;;;3.13;2.20;;;;;;;;;;5033455;28;20394;-64
2023/07/28 05:47:24;;;;;;;2.55;2.10;;;;;;;;;;5033921;28;20022;-63
2023/07/28 05:49:53;;;;;;;2.33;2.13;;;;;;;;;;5033539;28;20032;-64
2023/07/28 05:52:20;;;;;;;2.20;1.88;;;;;;;;;;5033694;28;20047;-63
2023/07/28 05:54:46;;;;;;;4.57;2.00;;;;;;;;;;5033153;28;20034;-64
2023/07/28 05:57:12;;;;;;;3.47;1.90;;;;;;;;;;5033314;28;20038;-64
2023/07/28 05:59:39;;;;;;;4.18;2.10;;;;;;;;;;5033200;28;20021;-64
2023/07/28 06:02:05;;;;;;;2.22;1.77;;;;;;;;;;5032186;28;20043;-64
2023/07/28 06:04:31;;;;;;;5.43;2.05;;;;;;;;;;5033648;28;20020;-63
2023/07/28 06:06:58;;;;;;;5.47;1.70;;;;;;;;;;5033169;28;20034;-64
2023/07/28 06:09:24;;;;;;;3.33;2.30;;;;;;;;;;5032956;28;20025;-64
2023/07/28 06:11:50;;;;;;;2.78;1.77;;;;;;;;;;5035048;28;20039;-64
2023/07/28 06:14:17;;;;;;;2.38;1.60;;;;;;;;;;5053175;28;20021;-63
2023/07/28 06:16:43;;;;;;;3.25;2.13;;;;;;;;;;5053218;28;20039;-64
2023/07/28 06:19:09;;;;;;;4.85;1.90;;;;;;;;;;5052845;28;20017;-64
2023/07/28 06:21:36;;;;;;;2.42;1.80;;;;;;;;;;5050868;28;20031;-64
2023/07/28 06:24:02;;;;;;;4.65;1.90;;;;;;;;;;5051455;28;20047;-64
2023/07/28 06:26:28;;;;;;;6.88;2.15;;;;;;;;;;5052459;28;20028;-64
2023/07/28 06:28:54;;;;;;;4.07;2.33;;;;;;;;;;5052562;28;20037;-64
2023/07/28 06:31:21;;;;;;;4.18;2.35;;;;;;;;;;5052528;28;20049;-64
2023/07/28 06:33:48;;;;;;;3.35;2.08;;;;;;;;;;5052501;28;20023;-64
2023/07/28 06:36:14;;;;;;;3.63;2.10;;;;;;;;;;5052165;28;20043;-64
2023/07/28 06:38:40;;;;;;;3.25;2.30;;;;;;;;;;5050861;28;20436;-64
2023/07/28 06:41:07;;;;;;;2.75;2.05;;;;;;;;;;5052314;28;20389;-64
2023/07/28 06:43:33;;;;;;;2.58;1.95;;;;;;;;;;5052448;28;20025;-66
2023/07/28 06:45:59;;;;;;;3.47;2.13;;;;;;;;;;5052452;28;20470;-67
2023/07/28 06:48:26;;;;;;;4.32;2.15;;;;;;;;;;5049266;28;20036;-67
2023/07/28 06:50:53;;;;;;;3.92;2.42;;;;;;;;;;5050024;28;20040;-67
2023/07/28 06:53:19;;;;;;;3.30;1.95;;;;;;;;;;5050193;28;20035;-67
2023/07/28 06:55:45;;;;;;;2.90;1.70;;;;;;;;;;5049985;28;20035;-67
2023/07/28 06:58:12;;;;;;;2.10;1.90;;;;;;;;;;5050963;28;20043;-67
2023/07/28 07:00:38;;;;;;;2.92;2.10;;;;;;;;;;5052207;28;20032;-67
2023/07/28 07:03:05;;;;;;;2.83;2.08;;;;;;;;;;5051652;28;20519;-67
2023/07/28 07:05:32;;;;;;;3.53;2.15;;;;;;;;;;5051971;28;20029;-69
2023/07/28 07:07:58;;;;;;;3.90;2.33;;;;;;;;;;5051556;28;20029;-67
2023/07/28 07:10:25;;;;;;;3.45;2.78;;;;;;;;;;5051516;28;20017;-67
2023/07/28 07:12:51;;;;;;;4.07;3.05;;;;;;;;;;5051446;28;20031;-68
2023/07/28 07:15:17;;;;;;;9.77;2.70;;;;;;;;;;5051473;28;20029;-68
2023/07/28 07:17:43;;;;;;;5.25;2.10;;;;;;;;;;5051568;28;20032;-67
2023/07/28 07:20:10;;;;;;;3.53;2.28;;;;;;;;;;5049444;28;20033;-67
2023/07/28 07:22:36;;;;;;;3.97;2.55;;;;;;;;;;5050215;28;20033;-67
2023/07/28 07:25:04;;;;;;;2.75;2.38;;;;;;;;;;5052525;28;20029;-67
2023/07/28 07:27:30;;;;;;;5.47;2.88;;;;;;;;;;5050930;28;20017;-68
2023/07/28 07:29:56;;;;;;;4.63;2.50;;;;;;;;;;5051190;28;20024;-68
2023/07/28 07:32:22;;;;;;;7.72;2.67;;;;;;;;;;5050981;28;20558;-68
2023/07/28 07:34:49;;;;;;;4.90;2.60;;;;;;;;;;5051246;28;20033;-67
2023/07/28 07:37:15;;;;;;;3.42;2.50;;;;;;;;;;5051328;28;20033;-68
2023/07/28 07:39:43;;;;;;;5.07;2.78;;;;;;;;;;5050940;28;20017;-68
2023/07/28 07:42:11;;;;;;;4.63;2.63;;;;;;;;;;5051322;28;20035;-68
2023/07/28 07:44:37;;;;;;;4.45;2.67;;;;;;;;;;5051066;28;20047;-68
2023/07/28 07:47:13;;;;;;;3.17;2.58;;;;;;;;;;5051218;28;20021;-68
2023/07/28 07:49:39;;;;;;;5.22;2.92;;;;;;;;;;5050826;28;20033;-68
2023/07/28 07:52:07;;;;;;;3.97;2.70;;;;;;;;;;5051184;28;20029;-68
2023/07/28 07:54:33;;;;;;;4.95;2.70;;;;;;;;;;5050399;28;20029;-68
2023/07/28 07:56:59;;;;;;;2.97;2.50;;;;;;;;;;5050643;28;20041;-68
2023/07/28 07:59:27;;;;;;;4.78;2.85;;;;;;;;;;5050761;28;20466;-68
2023/07/28 08:01:54;;;;;;;3.17;2.50;;;;;;;;;;5050775;28;20029;-68
2023/07/28 08:04:20;;;;;;;2.88;2.42;;;;;;;;;;5050569;28;20024;-68
2023/07/28 08:06:47;;;;;;;7.10;2.67;;;;;;;;;;5049385;28;20033;-68
2023/07/28 08:09:14;;;;;;;2.78;2.55;;;;;;;;;;5052075;28;20552;-68
2023/07/28 08:11:40;;;;;;;2.83;2.50;;;;;;;;;;5054273;28;20021;-68
2023/07/28 08:14:06;;;;;;;2.60;2.35;;;;;;;;;;5054183;28;20029;-68
2023/07/28 08:16:33;;;;;;;7.65;2.75;;;;;;;;;;5054579;28;20033;-68
2023/07/28 08:18:59;;;;;;;2.63;2.30;;;;;;;;;;5054077;28;20506;-68
2023/07/28 08:21:25;;;;;;;2.40;2.20;;;;;;;;;;5054769;28;20021;-68
2023/07/28 08:23:52;;;;;;;3.72;2.40;;;;;;;;;;5054329;28;20017;-68
2023/07/28 08:26:18;;;;;;;3.85;2.35;;;;;;;;;;5054430;28;20035;-69
2023/07/28 08:28:44;;;;;;;2.95;2.10;;;;;;;;;;5054700;28;20024;-67
2023/07/28 08:31:11;;;;;;;6.45;2.10;;;;;;;;;;5054286;28;20510;-68
2023/07/28 08:33:37;;;;;;;3.03;2.50;;;;;;;;;;5054046;28;20409;-67
2023/07/28 08:36:04;;;;;;;4.32;2.10;;;;;;;;;;5054171;28;20029;-68
2023/07/28 08:38:30;;;;;;;2.25;2.05;;;;;;;;;;5054036;28;20035;-67
2023/07/28 08:40:58;;;;;;;4.88;2.10;;;;;;;;;;5053997;28;20024;-68
2023/07/28 08:43:25;;;;;;;2.60;2.10;;;;;;;;;;5052055;28;20025;-68
2023/07/28 08:45:53;;;;;;;3.70;2.30;;;;;;;;;;5053606;28;20055;-68
2023/07/28 08:48:19;;;;;;;2.90;2.20;;;;;;;;;;5053462;28;20029;-68
2023/07/28 08:50:46;;;;;;;5.82;2.40;;;;;;;;;;5053929;28;20466;-67
2023/07/28 08:53:12;;;;;;;8.10;4.53;;;;;;;;;;5053424;28;20025;-68
2023/07/28 08:55:39;;;;;;;2.80;2.22;;;;;;;;;;5053307;28;20063;-67
2023/07/28 08:58:18;;;;;;;2.17;1.90;;;;;;;;;;5052708;28;20041;-68
2023/07/28 09:00:48;;;;;;;6.25;2.10;;;;;;;;;;5053753;28;20481;-67
2023/07/28 09:03:16;;;;;;;3.83;2.33;;;;;;;;;;5053010;28;20040;-67
2023/07/28 09:05:44;;;;;;;3.90;2.30;;;;;;;;;;5053341;28;20020;-68
2023/07/28 09:08:10;;;;;;;5.85;2.50;;;;;;;;;;5053251;28;20550;-68
2023/07/28 09:10:48;;;;;;;5.18;2.20;;;;;;;;;;5053620;28;20021;-67
2023/07/28 09:13:15;;;;;;;2.28;1.95;;;;;;;;;;5053171;28;20025;-68
2023/07/28 09:15:42;;;;;;;3.42;2.10;;;;;;;;;;5053133;28;20025;-69
2023/07/28 09:18:27;;;;;;;3.45;2.00;;;;;;;;;;5051754;28;20027;-69
2023/07/28 09:20:54;;;;;;;2.97;2.10;;;;;;;;;;5052818;28;20048;-70
2023/07/28 09:23:28;;;;;;;2.53;2.10;;;;;;;;;;5052705;28;20391;-70
2023/07/28 09:26:00;;;;;;;2.58;2.00;;;;;;;;;;5053155;28;20021;-69
2023/07/28 09:28:39;;;;;;;8.65;2.10;;;;;;;;;;5052830;28;20059;-69
2023/07/28 09:31:06;;;;;;;4.10;2.03;;;;;;;;;;5052556;28;20071;-68
2023/07/28 09:33:33;;;;;;;2.15;1.90;;;;;;;;;;5052928;28;20025;-68
2023/07/28 09:36:07;;;;;;;2.30;1.92;;;;;;;;;;5053082;28;20031;-68
2023/07/28 09:38:36;;;;;;;3.42;2.17;;;;;;;;;;5052814;28;20021;-68
2023/07/28 09:41:07;;;;;;;3.60;1.80;;;;;;;;;;5052770;28;20028;-68
2023/07/28 09:43:34;;;;;;;3.55;1.80;;;;;;;;;;5051513;28;20032;-68
2023/07/28 09:46:03;;;;;;;2.72;1.92;;;;;;;;;;5052731;28;20055;-68
2023/07/28 09:48:30;;;;;;;1.80;1.70;;;;;;;;;;5051486;28;20513;-69
2023/07/28 09:50:58;;;;;;;3.00;1.75;;;;;;;;;;5052494;28;20031;-68
2023/07/28 09:53:26;;;;;;;2.92;2.00;;;;;;;;;;5052761;28;20025;-68
2023/07/28 09:55:52;;;;;;;2.80;1.50;;;;;;;;;;5051536;28;20039;-68
2023/07/28 09:58:21;;;;;;;1.92;1.70;;;;;;;;;;5052544;28;20039;-69
2023/07/28 10:00:48;;;;;;;5.70;1.80;;;;;;;;;;5051794;28;20023;-69
2023/07/28 10:03:15;;;;;;;2.53;1.58;;;;;;;;;;5052131;28;20094;-68
2023/07/28 10:05:41;;;;;;;2.58;1.67;;;;;;;;;;5051857;28;20029;-69
2023/07/28 10:08:08;;;;;;;1.80;1.45;;;;;;;;;;5052169;28;20021;-68
2023/07/28 10:10:34;;;;;;;1.83;1.67;;;;;;;;;;5051887;28;20031;-69
2023/07/28 10:13:02;;;;;;;1.65;1.55;;;;;;;;;;5051299;28;20029;-69
2023/07/28 10:15:29;;;;;;;1.42;1.33;;;;;;;;;;5051893;28;20490;-69
2023/07/28 10:17:57;;;;;;;1.88;1.50;;;;;;;;;;5052335;28;20037;-69
2023/07/28 10:20:28;;;;;;;1.65;1.40;;;;;;;;;;5051283;28;20023;-69
2023/07/28 10:22:54;;;;;;;1.73;1.40;;;;;;;;;;5051818;28;20033;-68
2023/07/28 10:25:25;;;;;;;1.73;1.38;;;;;;;;;;5051390;28;20043;-69
2023/07/28 10:27:52;;;;;;;2.25;1.55;;;;;;;;;;5051659;28;20515;-69
2023/07/28 10:30:20;;;;;;;2.75;1.70;;;;;;;;;;5051155;28;20025;-70
2023/07/28 10:32:50;;;;;;;1.70;1.48;;;;;;;;;;5050846;28;20527;-69
2023/07/28 10:35:22;;;;;;;1.88;1.70;;;;;;;;;;5051879;28;20039;-69
2023/07/28 10:37:49;;;;;;;1.80;1.63;;;;;;;;;;5051886;28;20039;-69
2023/07/28 10:40:24;;;;;;;1.63;1.50;;;;;;;;;;5051613;28;20037;-69
2023/07/28 10:42:51;;;;;;;2.45;1.75;;;;;;;;;;5051908;28;20017;-69
2023/07/28 10:45:18;;;;;;;2.35;1.80;;;;;;;;;;5051738;28;20028;-68
2023/07/28 10:47:45;;;;;;;1.60;1.50;;;;;;;;;;5051199;28;20017;-68
2023/07/28 10:50:12;;;;;;;2.47;1.50;;;;;;;;;;5050823;28;20031;-69
2023/07/28 10:52:41;;;;;;;1.70;1.60;;;;;;;;;;5051543;28;20545;-69
2023/07/28 10:55:14;;;;;;;3.35;1.50;;;;;;;;;;5051625;28;20017;-69
2023/07/28 10:57:42;;;;;;;3.38;1.50;;;;;;;;;;5051118;28;20045;-69
2023/07/28 11:00:08;;;;;;;1.55;1.45;;;;;;;;;;5051555;28;20021;-69
2023/07/28 11:02:37;;;;;;;2.15;1.80;;;;;;;;;;5051882;28;20033;-69
2023/07/28 11:05:14;;;;;;;1.73;1.63;;;;;;;;;;5051540;28;20039;-68
2023/07/28 11:07:42;;;;;;;1.65;1.55;;;;;;;;;;5051277;28;20035;-69
2023/07/28 11:10:09;;;;;;;2.03;1.65;;;;;;;;;;5051840;28;20062;-69
2023/07/28 11:12:35;;;;;;;2.00;1.80;;;;;;;;;;5049767;28;20055;-69
2023/07/28 11:15:01;;;;;;;3.03;2.30;;;;;;;;;;5051721;28;20028;-69
2023/07/28 11:17:28;;;;;;;2.15;1.95;;;;;;;;;;5051635;28;20379;-69
2023/07/28 11:19:54;;;;;;;2.00;1.80;;;;;;;;;;5051459;28;20392;-69
2023/07/28 11:22:20;;;;;;;2.25;1.80;;;;;;;;;;5051772;28;20013;-69
2023/07/28 11:24:51;;;;;;;2.78;1.90;;;;;;;;;;5052286;28;20028;-69
2023/07/28 11:27:17;;;;;;;;;;;;;;;;;;5052066;28;20366;-69
2023/07/28 11:29:44;;;;;;;2.17;1.98;;;;;;;;;;5051845;28;19904;-69
2023/07/28 11:32:10;;;;;;;2.13;1.80;;;;;;;;;;5051845;28;20042;-69
2023/07/28 11:34:36;;;;;;;1.92;1.75;;;;;;;;;;5052146;28;20037;-68
2023/07/28 11:37:05;;;;;;;2.47;1.92;;;;;;;;;;5051676;28;20032;-68
2023/07/28 11:39:31;;;;;;;2.72;1.77;;;;;;;;;;5051793;28;20029;-69
2023/07/28 11:41:58;;;;;;;2.35;2.15;;;;;;;;;;5050475;28;20041;-69
2023/07/28 11:44:24;;;;;;;3.83;1.75;;;;;;;;;;5054720;28;20470;-69
2023/07/28 11:46:54;;;;;;;3.00;2.13;;;;;;;;;;5055382;28;20028;-69
2023/07/28 11:49:24;;;;;;;2.95;2.10;;;;;;;;;;5054180;28;20351;-69
2023/07/28 11:51:52;;;;;;;3.07;2.43;;;;;;;;;;5052645;28;20037;-71
2023/07/28 11:54:21;;;;;;;2.10;1.90;;;;;;;;;;5054611;28;20404;-71
2023/07/28 11:56:48;;;;;;;4.38;2.25;;;;;;;;;;5054324;28;20389;-72
2023/07/28 11:59:16;;;;;;;2.60;1.85;;;;;;;;;;5054734;28;20021;-72
2023/07/28 12:01:55;;;;;;;3.50;2.35;;;;;;;;;;5054499;28;20078;-69
2023/07/28 12:04:28;;;;;;;5.88;2.10;;;;;;;;;;5052321;28;20484;-68
2023/07/28 12:07:06;;;;;;;2.05;1.85;;;;;;;;;;5054637;28;20024;-71
2023/07/28 12:09:52;;;;;;;2.60;2.00;;;;;;;;;;5054146;28;20021;-71
2023/07/28 12:12:20;;;;;;;4.03;1.98;;;;;;;;;;5053844;28;20622;-73
2023/07/28 12:14:47;;;;;;;13.68;2.30;;;;;;;;;;5054576;28;20025;-71
2023/07/28 12:17:14;;;;;;;2.63;1.70;;;;;;;;;;5054374;28;20028;-71
2023/07/28 12:19:56;;;;;;;5.30;2.15;;;;;;;;;;5054109;28;20033;-71
2023/07/28 12:22:23;;;;;;;3.88;2.10;;;;;;;;;;5054191;28;20035;-70
2023/07/28 12:24:49;;;;;;;2.95;1.90;;;;;;;;;;5053137;28;20110;-70
2023/07/28 12:27:16;;;;;;;4.35;1.92;;;;;;;;;;5054348;28;20025;-70
2023/07/28 12:29:42;;;;;;;5.25;2.20;;;;;;;;;;5052740;28;20035;-71
2023/07/28 12:32:08;;;;;;;4.00;2.00;;;;;;;;;;5054329;28;20045;-71
2023/07/28 12:34:35;;;;;;;1.95;1.70;;;;;;;;;;5054551;28;20086;-71
2023/07/28 12:37:01;;;;;;;3.65;2.10;;;;;;;;;;5054087;28;20025;-71
2023/07/28 12:39:29;;;;;;;2.30;2.10;;;;;;;;;;5053811;28;20482;-70
2023/07/28 12:41:55;;;;;;;3.15;2.00;;;;;;;;;;5054259;28;20078;-72
2023/07/28 12:44:21;;;;;;;3.22;2.00;;;;;;;;;;5053968;28;20031;-71
2023/07/28 12:46:48;;;;;;;2.63;2.00;;;;;;;;;;5054660;28;20016;-72
2023/07/28 12:49:14;;;;;;;4.07;2.33;;;;;;;;;;5054264;28;20404;-70
2023/07/28 12:51:41;;;;;;;3.83;2.20;;;;;;;;;;5054342;28;20031;-70
2023/07/28 12:54:08;;;;;;;2.20;2.00;;;;;;;;;;5054001;28;20027;-71
2023/07/28 12:56:34;;;;;;;2.30;2.10;;;;;;;;;;5052755;28;20049;-71
2023/07/28 12:59:00;;;;;;;6.18;2.05;;;;;;;;;;5053269;28;20095;-70
2023/07/28 13:01:27;;;;;;;2.65;2.00;;;;;;;;;;5053697;28;20024;-71
2023/07/28 13:03:53;;;;;;;2.33;2.13;;;;;;;;;;5053933;28;20397;-69
2023/07/28 13:06:20;;;;;;;2.50;1.90;;;;;;;;;;5053943;28;20029;-70
2023/07/28 13:08:46;;;;;;;1.77;1.67;;;;;;;;;;5052528;28;20033;-71
2023/07/28 13:11:14;;;;;;;2.35;1.90;;;;;;;;;;5053578;28;20522;-71
2023/07/28 13:13:40;;;;;;;2.92;2.13;;;;;;;;;;5036462;28;20448;-71
2023/07/28 13:16:07;;;;;;;3.85;2.00;;;;;;;;;;5033900;28;20033;-69
2023/07/28 13:18:33;;;;;;;2.40;2.20;;;;;;;;;;5033652;28;20043;-69
2023/07/28 13:21:00;;;;;;;3.03;2.00;;;;;;;;;;5033879;28;20017;-69
2023/07/28 13:23:26;;;;;;;3.10;2.10;;;;;;;;;;5033745;28;20036;-69
2023/07/28 13:25:53;;;;;;;2.42;2.17;;;;;;;;;;5033738;28;20470;-70
2023/07/28 13:28:19;;;;;;;2.78;2.20;;;;;;;;;;5033162;28;20032;-71
2023/07/28 13:30:45;;;;;;;3.28;2.20;;;;;;;;;;5033648;28;20539;-73
2023/07/28 13:33:12;;;;;;;2.78;2.10;;;;;;;;;;5033384;28;20032;-72
2023/07/28 13:35:38;;;;;;;4.30;2.20;;;;;;;;;;5033440;28;20400;-71
2023/07/28 13:38:04;;;;;;;5.30;2.22;;;;;;;;;;5038278;28;20083;-70
2023/07/28 13:40:30;;;;;;;4.18;1.77;;;;;;;;;;5054328;28;20375;-69
2023/07/28 13:42:57;;;;;;;4.50;2.10;;;;;;;;;;5052874;28;20035;-69
2023/07/28 13:45:23;;;;;;;2.47;1.77;;;;;;;;;;5052796;28;20025;-69
2023/07/28 13:47:49;;;;;;;2.35;2.15;;;;;;;;;;5052561;28;20033;-72
2023/07/28 13:50:16;;;;;;;2.67;2.10;;;;;;;;;;5052295;28;20494;-75
2023/07/28 13:52:43;;;;;;;2.17;1.90;;;;;;;;;;5052314;28;20025;-75
2023/07/28 13:55:09;;;;;;;4.47;2.47;;;;;;;;;;5050940;28;20035;-70
2023/07/28 13:57:35;;;;;;;7.10;2.42;;;;;;;;;;5051638;28;20516;-69
2023/07/28 14:00:02;;;;;;;2.13;2.00;;;;;;;;;;5052389;28;20031;-69
2023/07/28 14:02:28;;;;;;;5.57;2.03;;;;;;;;;;5051943;28;20033;-69
2023/07/28 14:04:54;;;;;;;3.55;2.33;;;;;;;;;;5052318;28;20025;-69
2023/07/28 14:07:21;;;;;;;4.28;2.08;;;;;;;;;;5051768;28;20021;-69
2023/07/28 14:09:47;;;;;;;2.50;2.05;;;;;;;;;;5051375;28;20486;-69
2023/07/28 14:12:13;;;;;;;2.25;2.05;;;;;;;;;;5046358;28;20051;-70
2023/07/28 14:14:40;;;;;;;2.47;2.10;;;;;;;;;;5031973;28;20025;-69
2023/07/28 14:17:06;;;;;;;2.97;1.95;;;;;;;;;;5031786;28;20051;-69
2023/07/28 14:19:32;;;;;;;3.05;2.17;;;;;;;;;;5041994;28;20033;-69
2023/07/28 14:21:58;;;;;;;3.75;2.00;;;;;;;;;;5051649;28;20404;-69
2023/07/28 14:24:25;;;;;;;3.58;1.98;;;;;;;;;;5051918;28;20025;-69
2023/07/28 14:26:51;;;;;;;2.75;1.98;;;;;;;;;;5051565;28;20033;-70
2023/07/28 14:29:17;;;;;;;3.85;2.00;;;;;;;;;;5051588;28;20033;-70
2023/07/28 14:31:44;;;;;;;2.38;2.10;;;;;;;;;;5051520;28;20051;-69
2023/07/28 14:34:10;;;;;;;2.10;1.88;;;;;;;;;;5050462;28;20033;-70
2023/07/28 14:36:38;;;;;;;2.40;1.77;;;;;;;;;;5051352;28;20045;-69
2023/07/28 14:39:05;;;;;;;2.17;1.90;;;;;;;;;;5051296;28;20029;-69
2023/07/28 14:41:31;;;;;;;2.50;2.30;;;;;;;;;;5050730;28;20033;-69
2023/07/28 14:43:58;;;;;;;6.05;2.10;;;;;;;;;;5051496;28;20029;-69